KBOS/BOS METAR and TAF weather

Enter ICAO airport designator
Station Type Date Time Source
KBOS METAR 2020/03/29 20:59 UTC NOAA

KBOS 292059Z 08017KT 1SM R04R/5000V6000FT -RA BR BKN008 OVC012 04/03 A3006 RMK AO2 TWR VIS 1 1/2 P0000 T00390028


Station Type Date Time Source
KBOS Decoded METAR 2020/03/29 20:59 UTC NOAA

BOSTON LOGAN INTERNATIONAL, MA, United States (KBOS) 42-22N 071-01W 54M
Mar 29, 2020 - 04:59 PM EDT / 2020.03.29 2059 UTC
Wind: from the E (080 degrees) at 20 MPH (17 KT) (direction variable):0
Visibility: 1 mile(s):0
Sky conditions: overcast
Weather: light rain; mist
Precipitation last hour: A trace
Temperature: 39.0 F (3.9 C)
Dew Point: 37.0 F (2.8 C)
Relative Humidity: 92%
Pressure (altimeter): 30.06 in. Hg (1017 hPa)
ob: KBOS 292059Z 08017KT 1SM R04R/5000V6000FT -RA BR BKN008 OVC012 04/03 A3006 RMK AO2 TWR VIS 1 1/2 P0000 T00390028
cycle: 21

Station Type Date Time Source
KBOS TAF 2020/03/29 21:53 UTC NOAA

TAF
AMD KBOS 292045Z 2921/3024 10017G23KT 2SM -SHRA BR SCT008 OVC011
FM292300 07015KT 2SM -SHRA BR OVC008
FM300600 05013G22KT 5SM BR VCSH OVC008
FM301500 02008KT 3SM BR OVC008
FM301900 03010G18KT P6SM OVC008

Example: see airport list